Time;durP1;ratioP1;P1;durP2;ratioP2;P2;SDS_P1;SDS_P2;PMS_P1;PMS_P2;Temp;Humidity;BMP_temperature;BMP_pressure;BME280_temperature;BME280_humidity;BME280_pressure;Samples;Min_cycle;Max_cycle;Signal;HPM_P1;HPM_P2
2022/03/23 00:00:28;;;;;;;33.23;20.60;;;9.50;93.90;;;;;;5068717;28;20602;-71
2022/03/23 00:02:55;;;;;;;38.40;20.43;;;9.50;94.10;;;;;;5069681;28;20225;-71
2022/03/23 00:05:20;;;;;;;36.67;19.53;;;9.50;94.30;;;;;;5046374;28;20286;-70
2022/03/23 00:07:46;;;;;;;35.93;20.20;;;9.40;94.80;;;;;;5056112;28;20302;-71
2022/03/23 00:10:11;;;;;;;37.77;20.40;;;9.40;94.70;;;;;;5068706;28;20313;-71
2022/03/23 00:12:37;;;;;;;33.93;19.83;;;9.40;95.00;;;;;;5069017;28;20203;-70
2022/03/23 00:15:03;;;;;;;35.23;20.07;;;9.30;95.10;;;;;;5070705;28;20262;-72
2022/03/23 00:17:28;;;;;;;35.67;18.57;;;9.30;95.30;;;;;;5063830;28;20207;-71
2022/03/23 00:19:54;;;;;;;37.90;21.50;;;9.30;95.60;;;;;;5068356;28;20380;-71
2022/03/23 00:22:20;;;;;;;35.13;19.43;;;9.30;95.90;;;;;;5069126;28;20251;-71
2022/03/23 00:24:46;;;;;;;32.87;18.87;;;9.30;96.00;;;;;;5070315;28;20236;-70
2022/03/23 00:27:12;;;;;;;39.23;20.27;;;9.20;96.40;;;;;;5068331;28;20273;-72
2022/03/23 00:29:38;;;;;;;35.60;19.57;;;9.20;96.70;;;;;;5051949;28;20208;-73
2022/03/23 00:32:05;;;;;;;31.53;20.00;;;9.20;96.90;;;;;;5049041;28;20211;-72
2022/03/23 00:34:30;;;;;;;30.33;18.40;;;9.10;97.10;;;;;;5049618;28;20200;-74
2022/03/23 00:36:56;;;;;;;34.77;20.27;;;9.10;97.30;;;;;;5051369;28;20299;-73
2022/03/23 00:39:22;;;;;;;30.73;18.80;;;9.10;97.40;;;;;;5050832;28;20680;-74
2022/03/23 00:41:50;;;;;;;36.53;19.40;;;9.10;97.50;;;;;;5049034;28;20261;-74
2022/03/23 00:44:16;;;;;;;29.13;18.80;;;9.10;97.70;;;;;;5051124;28;20222;-73
2022/03/23 00:46:42;;;;;;;36.53;19.20;;;9.10;97.80;;;;;;5050956;28;20932;-74
2022/03/23 00:49:09;;;;;;;30.23;19.47;;;9.00;98.00;;;;;;5050311;28;20231;-73
2022/03/23 00:51:35;;;;;;;35.43;19.17;;;9.00;98.30;;;;;;5051319;28;20268;-74
2022/03/23 00:54:00;;;;;;;36.93;19.17;;;9.00;98.80;;;;;;5049551;28;20180;-77
2022/03/23 00:56:26;;;;;;;36.50;19.33;;;9.10;98.60;;;;;;5060401;28;20200;-74
2022/03/23 00:58:51;;;;;;;36.77;19.23;;;9.10;98.70;;;;;;5052182;28;20199;-74
2022/03/23 01:01:17;;;;;;;40.43;18.93;;;9.00;98.60;;;;;;5053335;28;20208;-73
2022/03/23 01:03:42;;;;;;;31.93;19.77;;;9.00;98.70;;;;;;5054185;28;20290;-74
2022/03/23 01:06:08;;;;;;;30.93;18.07;;;8.90;99.00;;;;;;5054227;28;20163;-74
2022/03/23 01:08:34;;;;;;;33.97;18.90;;;8.90;99.10;;;;;;5057623;28;20241;-75
2022/03/23 01:11:01;;;;;;;32.73;18.67;;;8.90;99.20;;;;;;5057533;28;20238;-74
2022/03/23 01:13:26;;;;;;;29.80;18.20;;;8.90;99.40;;;;;;5066444;28;20208;-74
2022/03/23 01:15:52;;;;;;;34.33;18.83;;;8.80;99.50;;;;;;5057502;28;20230;-74
2022/03/23 01:18:17;;;;;;;32.27;19.10;;;8.80;99.70;;;;;;5057089;28;20553;-74
2022/03/23 01:20:43;;;;;;;31.60;18.80;;;8.70;99.70;;;;;;5056836;28;20324;-74
2022/03/23 01:23:09;;;;;;;31.50;18.43;;;8.70;99.80;;;;;;5056431;28;20203;-74
2022/03/23 01:25:35;;;;;;;31.30;18.50;;;8.70;99.90;;;;;;5058514;28;20222;-74
2022/03/23 01:28:00;;;;;;;28.10;18.67;;;8.70;99.90;;;;;;5072347;28;20309;-74
2022/03/23 01:30:26;;;;;;;30.13;17.13;;;8.70;99.90;;;;;;5073105;28;20242;-74
2022/03/23 01:32:51;;;;;;;37.47;18.97;;;8.70;99.90;;;;;;5072307;28;20186;-75
2022/03/23 01:35:17;;;;;;;28.77;18.23;;;8.60;99.90;;;;;;5074172;28;20224;-75
2022/03/23 01:37:43;;;;;;;36.53;17.73;;;8.60;99.90;;;;;;5073250;28;20211;-73
2022/03/23 01:40:10;;;;;;;29.37;17.83;;;8.60;99.90;;;;;;5071741;28;20293;-75
2022/03/23 01:42:37;;;;;;;31.77;18.43;;;8.60;99.90;;;;;;5073306;28;20214;-75
2022/03/23 01:45:04;;;;;;;33.70;18.83;;;8.50;99.90;;;;;;5074157;28;20198;-75
2022/03/23 01:47:29;;;;;;;26.73;16.97;;;8.50;99.90;;;;;;5068092;28;20211;-75
2022/03/23 01:49:56;;;;;;;36.10;17.67;;;8.60;99.90;;;;;;5071449;28;20344;-75
2022/03/23 01:52:24;;;;;;;25.53;16.00;;;8.60;99.20;;;;;;5073481;28;20235;-75
2022/03/23 01:54:50;;;;;;;24.80;15.30;;;8.60;98.40;;;;;;5073941;28;20206;-74
2022/03/23 01:57:18;;;;;;;21.40;15.07;;;8.70;97.20;;;;;;5074207;28;20238;-75
2022/03/23 01:59:45;;;;;;;23.37;15.33;;;8.70;96.70;;;;;;5073700;28;20203;-74
2022/03/23 02:02:11;;;;;;;28.03;15.43;;;8.80;96.70;;;;;;5072662;28;20210;-75
2022/03/23 02:04:37;;;;;;;28.67;15.90;;;8.80;97.00;;;;;;5072477;28;20265;-76
2022/03/23 02:07:03;;;;;;;24.50;15.93;;;8.80;96.90;;;;;;5073922;28;20223;-76
2022/03/23 02:09:29;;;;;;;21.70;15.03;;;8.80;96.60;;;;;;5072962;28;20651;-75
2022/03/23 02:11:56;;;;;;;25.83;15.63;;;8.80;96.70;;;;;;5072578;28;20214;-75
2022/03/23 02:14:22;;;;;;;26.40;15.73;;;8.80;96.90;;;;;;5072071;28;20294;-75
2022/03/23 02:16:51;;;;;;;25.67;15.87;;;8.80;96.80;;;;;;5074368;28;20634;-76
2022/03/23 02:19:18;;;;;;;22.93;15.40;;;8.80;96.60;;;;;;5064147;28;20222;-75
2022/03/23 02:21:46;;;;;;;24.40;15.33;;;8.80;96.70;;;;;;5073012;28;20207;-76
2022/03/23 02:24:13;;;;;;;29.63;16.20;;;8.70;96.90;;;;;;5072840;28;20287;-75
2022/03/23 02:26:40;;;;;;;29.97;16.17;;;8.70;96.90;;;;;;5073068;28;20219;-76
2022/03/23 02:29:06;;;;;;;25.10;15.33;;;8.60;97.00;;;;;;5072464;28;20206;-75
2022/03/23 02:31:32;;;;;;;25.77;16.10;;;8.60;97.40;;;;;;5073017;28;20599;-75
2022/03/23 02:33:57;;;;;;;23.17;14.80;;;8.60;97.80;;;;;;5074428;28;20217;-75
2022/03/23 02:36:23;;;;;;;24.50;15.67;;;8.60;97.70;;;;;;5075782;28;20175;-76
2022/03/23 02:38:48;;;;;;;25.53;15.63;;;8.60;97.10;;;;;;5074714;28;20608;-76
2022/03/23 02:41:14;;;;;;;24.93;15.03;;;8.50;96.90;;;;;;5074781;28;20298;-76
2022/03/23 02:43:40;;;;;;;24.77;16.00;;;8.50;97.10;;;;;;5075472;28;20219;-75
2022/03/23 02:46:12;;;;;;;25.13;14.27;;;8.50;97.40;;;;;;5076778;28;20272;-75
2022/03/23 02:48:37;;;;;;;26.97;15.93;;;8.50;97.10;;;;;;5072412;28;20210;-75
2022/03/23 02:51:03;;;;;;;27.10;15.43;;;8.50;97.30;;;;;;5081115;28;20202;-75
2022/03/23 03:02:14;;;;;;;22.67;15.23;;;8.40;97.30;;;;;;5076171;28;20293;-76
2022/03/23 03:04:41;;;;;;;25.80;15.77;;;8.40;97.50;;;;;;5072888;28;20235;-76
2022/03/23 03:07:06;;;;;;;27.10;14.77;;;8.40;98.00;;;;;;5073521;28;20233;-76
2022/03/23 03:09:32;;;;;;;28.03;15.87;;;8.30;98.60;;;;;;5074422;28;20224;-75
2022/03/23 03:11:57;;;;;;;26.90;15.10;;;8.20;98.90;;;;;;5074685;28;20214;-75
2022/03/23 03:14:23;;;;;;;23.43;15.00;;;8.20;98.20;;;;;;5072033;28;20249;-75
2022/03/23 03:16:48;;;;;;;24.60;15.00;;;8.30;98.20;;;;;;5072459;28;20621;-76
2022/03/23 03:19:14;;;;;;;25.17;15.10;;;8.20;99.20;;;;;;5066272;28;20214;-75
2022/03/23 03:21:40;;;;;;;27.90;16.33;;;8.10;99.40;;;;;;5072394;28;20621;-75
2022/03/23 03:24:06;;;;;;;26.37;16.00;;;8.10;99.90;;;;;;5073423;28;20179;-75
2022/03/23 03:26:32;;;;;;;29.00;16.17;;;8.00;99.90;;;;;;5070970;28;20203;-75
2022/03/23 03:28:58;;;;;;;28.93;16.47;;;8.00;99.90;;;;;;5063729;28;20210;-76
2022/03/23 03:31:23;;;;;;;30.70;17.53;;;7.90;99.90;;;;;;5058430;28;20239;-75
2022/03/23 03:33:49;;;;;;;28.40;16.00;;;7.90;99.90;;;;;;5063133;28;20207;-75
2022/03/23 03:36:15;;;;;;;30.23;17.53;;;7.80;99.90;;;;;;5064777;28;20178;-75
2022/03/23 03:38:42;;;;;;;33.37;17.97;;;7.70;99.90;;;;;;5060298;28;20223;-75
2022/03/23 03:41:09;;;;;;;30.80;19.07;;;7.70;99.90;;;;;;5059433;28;20216;-75
2022/03/23 03:43:35;;;;;;;31.03;18.10;;;7.70;99.90;;;;;;5062589;28;20208;-75
2022/03/23 03:46:02;;;;;;;32.70;18.43;;;7.70;99.90;;;;;;5064280;28;20211;-75
2022/03/23 03:48:28;;;;;;;25.93;16.97;;;7.60;99.90;;;;;;5061715;28;20207;-75
2022/03/23 03:50:54;;;;;;;29.83;18.67;;;7.70;99.90;;;;;;5060444;28;20200;-75
2022/03/23 03:53:19;;;;;;;28.80;19.07;;;7.60;99.90;;;;;;5060389;28;20576;-75
2022/03/23 03:55:45;;;;;;;32.30;19.43;;;7.60;99.90;;;;;;5063715;28;20214;-75
2022/03/23 03:58:12;;;;;;;32.77;20.23;;;7.50;99.90;;;;;;5063239;28;20203;-75
2022/03/23 04:00:38;;;;;;;30.80;18.40;;;7.50;99.90;;;;;;5061485;28;20174;-76
2022/03/23 04:03:05;;;;;;;34.33;18.77;;;7.50;99.90;;;;;;5061301;28;20617;-76
2022/03/23 04:05:31;;;;;;;34.43;19.10;;;7.40;99.90;;;;;;5061816;28;20202;-76
2022/03/23 04:07:57;;;;;;;37.13;20.33;;;7.40;99.90;;;;;;5063195;28;20214;-76
2022/03/23 04:10:23;;;;;;;35.43;19.40;;;7.30;99.90;;;;;;5062474;28;20217;-76
2022/03/23 04:12:49;;;;;;;37.87;21.17;;;7.20;99.90;;;;;;5059417;28;20310;-76
2022/03/23 04:15:14;;;;;;;34.33;21.10;;;7.20;99.90;;;;;;5061132;28;20258;-76
2022/03/23 04:17:41;;;;;;;33.70;20.23;;;7.10;99.90;;;;;;5060149;28;20296;-76
2022/03/23 04:20:07;;;;;;;35.53;20.37;;;7.10;99.90;;;;;;5058538;28;20254;-75
2022/03/23 04:22:33;;;;;;;35.97;19.77;;;7.10;99.90;;;;;;5060796;28;20700;-75
2022/03/23 04:24:59;;;;;;;33.67;19.50;;;7.00;99.90;;;;;;5064047;28;20210;-75
2022/03/23 04:27:24;;;;;;;32.40;19.70;;;7.10;99.90;;;;;;5062036;28;20282;-75
2022/03/23 04:29:50;;;;;;;34.77;18.57;;;7.10;99.90;;;;;;5059579;28;20179;-75
2022/03/23 04:32:15;;;;;;;33.67;18.23;;;7.00;99.90;;;;;;5064103;28;20225;-76
2022/03/23 04:34:41;;;;;;;33.80;18.47;;;6.90;99.90;;;;;;5062078;28;20253;-75
2022/03/23 04:37:06;;;;;;;40.90;19.73;;;6.90;99.90;;;;;;5061299;28;20575;-76
2022/03/23 04:39:32;;;;;;;34.40;19.53;;;6.80;99.90;;;;;;5060636;28;20199;-76
2022/03/23 04:41:58;;;;;;;34.13;19.60;;;6.90;99.90;;;;;;5065843;28;20221;-75
2022/03/23 04:44:24;;;;;;;35.40;19.27;;;6.90;99.90;;;;;;5066312;28;20657;-75
2022/03/23 04:46:49;;;;;;;33.80;19.40;;;6.80;99.90;;;;;;5063784;28;20208;-75
2022/03/23 04:49:15;;;;;;;35.00;19.63;;;6.80;99.90;;;;;;5063414;28;20741;-75
2022/03/23 04:51:41;;;;;;;30.87;19.33;;;6.70;99.90;;;;;;5066862;28;20288;-75
2022/03/23 04:54:06;;;;;;;36.00;19.00;;;6.70;99.90;;;;;;5068267;28;20694;-76
2022/03/23 04:56:32;;;;;;;34.63;19.33;;;6.60;99.90;;;;;;5063604;28;20337;-75
2022/03/23 04:58:59;;;;;;;37.00;19.27;;;6.60;99.90;;;;;;5062855;28;20203;-76
2022/03/23 05:01:24;;;;;;;32.27;19.57;;;6.60;99.90;;;;;;5065984;28;20211;-75
2022/03/23 05:03:51;;;;;;;30.27;18.97;;;6.60;99.90;;;;;;5066220;28;20199;-75
2022/03/23 05:06:17;;;;;;;29.57;18.30;;;6.60;99.90;;;;;;5068333;28;20171;-75
2022/03/23 05:08:42;;;;;;;31.80;18.60;;;6.70;99.90;;;;;;5063781;28;20223;-75
2022/03/23 05:11:08;;;;;;;29.83;17.97;;;6.70;99.90;;;;;;5064249;28;20212;-75
2022/03/23 05:13:34;;;;;;;34.47;19.20;;;6.70;99.90;;;;;;5063854;28;20740;-75
2022/03/23 05:15:59;;;;;;;36.90;20.43;;;6.80;99.90;;;;;;5065825;28;20221;-75
2022/03/23 05:18:25;;;;;;;37.90;19.57;;;6.80;99.90;;;;;;5065580;28;20188;-75
2022/03/23 05:20:51;;;;;;;34.03;18.73;;;6.80;99.90;;;;;;5064671;28;20602;-75
2022/03/23 05:23:16;;;;;;;29.33;18.90;;;6.90;99.90;;;;;;5063345;28;20211;-76
2022/03/23 05:25:42;;;;;;;36.00;19.33;;;6.90;99.90;;;;;;5066221;28;20248;-76
2022/03/23 05:28:08;;;;;;;36.20;19.93;;;7.00;99.90;;;;;;5065516;28;20352;-74
2022/03/23 05:30:34;;;;;;;35.53;19.30;;;7.00;99.90;;;;;;5052089;28;20609;-75
2022/03/23 05:33:01;;;;;;;37.20;19.23;;;7.00;99.90;;;;;;5055437;28;20176;-75
2022/03/23 05:35:27;;;;;;;33.27;19.47;;;7.10;99.90;;;;;;5053743;28;20215;-75
2022/03/23 05:37:52;;;;;;;32.20;18.97;;;7.10;99.90;;;;;;5054042;28;20283;-73
2022/03/23 05:40:19;;;;;;;33.80;18.07;;;7.20;99.90;;;;;;5053393;28;20203;-75
2022/03/23 05:42:44;;;;;;;33.20;17.73;;;7.40;99.90;;;;;;5053241;28;20282;-75
2022/03/23 05:45:10;;;;;;;37.77;19.23;;;7.60;99.90;;;;;;5055470;28;20207;-75
2022/03/23 05:47:37;;;;;;;34.20;19.20;;;7.60;99.90;;;;;;5053416;28;20222;-75
2022/03/23 05:50:03;;;;;;;34.00;18.77;;;7.70;99.90;;;;;;5073525;28;20207;-75
2022/03/23 05:52:29;;;;;;;34.13;18.03;;;7.80;99.90;;;;;;5071150;28;20568;-75
2022/03/23 05:54:54;;;;;;;35.37;19.40;;;7.80;99.90;;;;;;5067410;28;20217;-74
2022/03/23 05:57:19;;;;;;;33.47;18.20;;;7.90;99.90;;;;;;5074837;28;20178;-74
2022/03/23 05:59:47;;;;;;;34.20;18.83;;;9.30;99.90;;;;;;5073480;28;20215;-75
2022/03/23 06:02:12;;;;;;;30.60;17.10;;;11.80;99.90;;;;;;5073114;28;20744;-74
2022/03/23 06:04:38;;;;;;;34.10;18.73;;;13.60;99.40;;;;;;5072104;28;20290;-75
2022/03/23 06:07:04;;;;;;;29.57;17.93;;;15.50;94.60;;;;;;5072473;28;20296;-75
2022/03/23 06:09:29;;;;;;;30.07;18.77;;;16.70;91.30;;;;;;5073152;28;20170;-75
2022/03/23 06:11:56;;;;;;;27.75;18.67;;;17.70;87.60;;;;;;5073699;28;20558;-75
2022/03/23 06:14:22;;;;;;;29.23;18.95;;;18.30;83.20;;;;;;5073846;28;20252;-75
2022/03/23 06:16:47;;;;;;;27.70;18.35;;;18.70;79.00;;;;;;5071692;28;20210;-76
2022/03/23 06:19:13;;;;;;;30.60;19.50;;;19.40;77.80;;;;;;5070522;28;20214;-76
2022/03/23 06:21:39;;;;;;;31.58;19.83;;;19.60;75.70;;;;;;5072563;28;20209;-76
2022/03/23 06:24:05;;;;;;;26.90;18.92;;;19.50;74.50;;;;;;5071889;28;20175;-75
2022/03/23 06:26:30;;;;;;;28.52;19.17;;;19.80;74.00;;;;;;5072512;28;20684;-75
2022/03/23 06:28:56;;;;;;;28.60;20.13;;;20.00;72.30;;;;;;5071950;28;20195;-76
2022/03/23 06:31:22;;;;;;;31.77;20.17;;;20.40;71.90;;;;;;5071032;28;20647;-74
2022/03/23 06:33:48;;;;;;;34.53;21.30;;;20.60;70.60;;;;;;5071276;28;20694;-74
2022/03/23 06:36:14;;;;;;;32.78;21.67;;;20.60;71.70;;;;;;5071748;28;20178;-74
2022/03/23 06:38:40;;;;;;;33.20;21.13;;;20.60;71.00;;;;;;5071346;28;20211;-74
2022/03/23 06:41:07;;;;;;;37.45;22.85;;;21.00;70.30;;;;;;5070340;28;20275;-74
2022/03/23 06:43:33;;;;;;;32.25;22.75;;;21.30;70.40;;;;;;5072237;28;20584;-75
2022/03/23 06:45:59;;;;;;;33.80;22.73;;;20.90;68.40;;;;;;5074997;28;20213;-72
2022/03/23 06:48:25;;;;;;;35.67;23.25;;;21.50;67.80;;;;;;5072647;28;20199;-74
2022/03/23 06:50:50;;;;;;;33.13;21.88;;;21.20;67.20;;;;;;5075072;28;20199;-74
2022/03/23 06:53:15;;;;;;;34.00;20.80;;;21.00;66.10;;;;;;5073072;28;20210;-75
2022/03/23 06:55:41;;;;;;;28.13;20.75;;;21.00;66.20;;;;;;5072548;28;20586;-75
2022/03/23 06:58:06;;;;;;;28.55;20.52;;;21.10;64.40;;;;;;5070318;28;20238;-75
2022/03/23 07:00:32;;;;;;;30.40;21.35;;;21.70;63.90;;;;;;5069573;28;20241;-75
2022/03/23 07:02:58;;;;;;;26.30;20.42;;;21.50;62.70;;;;;;5057222;28;20195;-74
2022/03/23 07:05:24;;;;;;;26.55;20.35;;;21.60;62.00;;;;;;5071039;28;20213;-75
2022/03/23 07:10:34;;;;;;;28.05;20.10;;;20.90;60.90;;;;;;5071659;28;20233;-74
2022/03/23 07:13:00;;;;;;;33.75;22.33;;;20.40;61.60;;;;;;5071597;28;20237;-75
2022/03/23 07:15:26;;;;;;;28.58;18.77;;;20.60;61.50;;;;;;5071500;28;20182;-74
2022/03/23 07:17:51;;;;;;;32.33;23.83;;;20.40;61.00;;;;;;5070035;28;20172;-74
2022/03/23 07:20:17;;;;;;;30.90;19.83;;;20.60;62.50;;;;;;5071398;28;20298;-74
2022/03/23 07:22:43;;;;;;;28.55;19.30;;;22.10;60.00;;;;;;5070617;28;20206;-74
2022/03/23 07:25:10;;;;;;;27.67;20.17;;;21.90;58.90;;;;;;5070042;28;20214;-74
2022/03/23 07:27:35;;;;;;;22.27;19.25;;;21.30;58.60;;;;;;5070247;28;20207;-74
2022/03/23 07:30:01;;;;;;;28.58;20.70;;;21.30;58.50;;;;;;5072033;28;20201;-74
2022/03/23 07:32:26;;;;;;;28.88;19.65;;;21.00;59.60;;;;;;5061863;28;20235;-74
2022/03/23 07:34:52;;;;;;;27.13;18.92;;;21.30;58.70;;;;;;5068994;28;20302;-74
2022/03/23 07:37:18;;;;;;;26.90;20.17;;;21.30;58.90;;;;;;5075663;28;20570;-74
2022/03/23 07:39:43;;;;;;;27.25;19.15;;;20.60;59.80;;;;;;5062165;28;20309;-73
2022/03/23 07:42:09;;;;;;;27.95;20.33;;;20.80;59.90;;;;;;5070712;28;20626;-74
2022/03/23 07:44:35;;;;;;;27.25;19.00;;;19.90;59.90;;;;;;5063907;28;20604;-74
2022/03/23 07:47:02;;;;;;;29.52;18.75;;;20.10;60.10;;;;;;5069498;28;20219;-75
2022/03/23 07:49:27;;;;;;;42.78;31.98;;;21.30;59.40;;;;;;5067733;28;20214;-75
2022/03/23 07:51:53;;;;;;;29.88;19.17;;;21.20;58.80;;;;;;5059647;28;20228;-73
2022/03/23 07:54:18;;;;;;;28.08;19.60;;;20.40;59.90;;;;;;5068018;28;20652;-75
2022/03/23 07:56:44;;;;;;;26.13;18.65;;;20.60;59.90;;;;;;5061606;28;20679;-75
2022/03/23 07:59:10;;;;;;;33.35;21.02;;;21.30;58.60;;;;;;5061387;28;20207;-75
2022/03/23 08:01:36;;;;;;;34.50;19.88;;;20.70;59.20;;;;;;5083842;22;20223;-75
2022/03/23 08:04:04;;;;;;;27.70;17.88;;;19.90;59.40;;;;;;5063740;28;20283;-76
2022/03/23 08:06:33;;;;;;;29.42;19.15;;;20.20;60.00;;;;;;5061433;28;20176;-76
2022/03/23 08:08:58;;;;;;;27.67;19.20;;;20.70;59.20;;;;;;5058542;28;20270;-75
2022/03/23 08:11:24;;;;;;;29.05;19.88;;;20.30;59.00;;;;;;5055329;28;20697;-77
2022/03/23 08:13:49;;;;;;;27.10;20.75;;;20.80;59.50;;;;;;5070617;28;20222;-76
2022/03/23 08:16:15;;;;;;;28.08;19.42;;;21.20;59.00;;;;;;5044597;28;20245;-76
2022/03/23 08:18:40;;;;;;;26.10;17.92;;;21.60;58.10;;;;;;5066666;28;20296;-76
2022/03/23 08:21:06;;;;;;;30.45;17.77;;;20.30;58.50;;;;;;5051668;28;20680;-75
2022/03/23 08:23:32;;;;;;;26.92;19.52;;;20.00;58.90;;;;;;5062374;28;20215;-75
2022/03/23 08:25:58;;;;;;;29.25;18.35;;;20.40;58.90;;;;;;5037121;28;20199;-76
2022/03/23 08:28:23;;;;;;;27.77;18.95;;;20.30;59.50;;;;;;5036171;28;20223;-75
2022/03/23 08:30:49;;;;;;;23.80;18.00;;;20.70;59.10;;;;;;5052210;28;20211;-75
2022/03/23 08:33:15;;;;;;;26.65;20.13;;;20.40;58.90;;;;;;5054849;28;20183;-78
2022/03/23 08:35:40;;;;;;;29.00;19.92;;;21.50;58.30;;;;;;5064656;28;20207;-75
2022/03/23 08:38:07;;;;;;;31.25;20.02;;;22.20;57.30;;;;;;5056843;28;20226;-75
2022/03/23 08:40:34;;;;;;;29.63;18.40;;;22.00;56.90;;;;;;5037605;28;20790;-76
2022/03/23 08:43:00;;;;;;;33.42;19.25;;;22.10;56.90;;;;;;5055639;28;20222;-75
2022/03/23 08:45:27;;;;;;;22.05;17.33;;;22.00;56.10;;;;;;5064510;28;20183;-74
2022/03/23 08:47:52;;;;;;;24.58;18.98;;;22.00;56.50;;;;;;5036695;28;20731;-74
2022/03/23 08:50:18;;;;;;;30.70;18.73;;;21.80;56.80;;;;;;5053456;28;20326;-72
2022/03/23 08:52:44;;;;;;;26.15;18.70;;;21.80;57.00;;;;;;5053806;28;20222;-71
2022/03/23 08:55:14;;;;;;;29.10;17.55;;;22.60;57.00;;;;;;5053956;28;20278;-74
2022/03/23 08:57:40;;;;;;;25.73;19.30;;;22.40;55.60;;;;;;5035566;28;20534;-71
2022/03/23 09:00:07;;;;;;;27.38;19.90;;;22.30;56.00;;;;;;5035716;28;20214;-74
2022/03/23 09:02:33;;;;;;;29.55;18.15;;;22.20;56.10;;;;;;5060074;28;20235;-73
2022/03/23 09:04:58;;;;;;;29.45;19.70;;;21.70;56.00;;;;;;5059587;28;20304;-74
2022/03/23 09:07:24;;;;;;;29.60;19.77;;;21.10;56.60;;;;;;5060717;28;20223;-74
2022/03/23 09:09:49;;;;;;;25.98;19.08;;;20.60;57.40;;;;;;5072238;28;20217;-74
2022/03/23 09:12:15;;;;;;;24.80;17.33;;;20.80;57.70;;;;;;5072849;28;20273;-75
2022/03/23 09:14:41;;;;;;;29.08;18.48;;;21.00;57.60;;;;;;5073156;28;20219;-76
2022/03/23 09:17:06;;;;;;;29.80;19.27;;;20.80;57.70;;;;;;5073478;28;20203;-77
2022/03/23 09:19:32;;;;;;;26.77;17.98;;;20.90;58.10;;;;;;5052706;28;20215;-77
2022/03/23 09:21:59;;;;;;;23.95;18.50;;;21.10;57.40;;;;;;5073066;28;20206;-74
2022/03/23 09:24:25;;;;;;;27.20;17.88;;;21.30;57.40;;;;;;5065746;28;20741;-76
2022/03/23 09:26:51;;;;;;;24.42;18.58;;;20.60;57.60;;;;;;5073689;28;20206;-76
2022/03/23 09:29:17;;;;;;;28.73;17.67;;;20.20;58.30;;;;;;5054179;28;20194;-76
2022/03/23 09:31:42;;;;;;;27.77;18.23;;;20.50;58.30;;;;;;5072957;28;20241;-75
2022/03/23 09:34:08;;;;;;;30.98;18.25;;;20.90;59.10;;;;;;5073180;28;20207;-75
2022/03/23 09:39:18;;;;;;;23.30;18.58;;;20.30;58.20;;;;;;5072271;28;20228;-75
2022/03/23 09:41:47;;;;;;;28.80;17.60;;;19.70;59.10;;;;;;5072536;28;20207;-74
2022/03/23 09:44:13;;;;;;;25.50;18.63;;;19.30;59.50;;;;;;5072377;28;20227;-75
2022/03/23 09:46:39;;;;;;;30.77;18.40;;;19.30;59.60;;;;;;5064337;28;20268;-76
2022/03/23 09:49:06;;;;;;;29.52;18.55;;;19.50;59.60;;;;;;5070219;28;20210;-75
2022/03/23 09:51:33;;;;;;;28.05;17.77;;;20.50;60.00;;;;;;5054626;28;20685;-77
2022/03/23 09:54:00;;;;;;;23.30;17.20;;;20.00;58.40;;;;;;5072917;28;20184;-77
2022/03/23 09:56:25;;;;;;;27.63;17.50;;;19.40;58.80;;;;;;5072096;28;20210;-75
2022/03/23 09:58:51;;;;;;;28.38;17.40;;;20.00;59.30;;;;;;5071413;28;20206;-75
2022/03/23 10:01:51;;;;;;;22.23;17.70;;;19.80;58.70;;;;;;5050017;28;20704;-76
2022/03/23 10:04:20;;;;;;;24.05;17.02;;;19.70;58.30;;;;;;5046363;28;20203;-75
2022/03/23 10:06:59;;;;;;;23.83;17.45;;;19.90;58.20;;;;;;5071782;28;20214;-73
2022/03/23 10:09:40;;;;;;;28.65;18.17;;;19.80;58.40;;;;;;5053157;28;20171;-75
2022/03/23 10:12:47;;;;;;;28.55;18.80;;;20.10;58.60;;;;;;5072758;28;20175;-76
2022/03/23 10:15:54;;;;;;;24.38;18.65;;;20.50;58.90;;;;;;5063323;28;20281;-77
2022/03/23 10:18:51;;;;;;;28.23;19.88;;;20.60;58.00;;;;;;5047474;28;20204;-76
2022/03/23 10:21:18;;;;;;;31.27;19.83;;;19.80;58.30;;;;;;5052677;28;20696;-75
2022/03/23 10:23:59;;;;;;;29.00;18.95;;;20.00;58.60;;;;;;5050689;28;20226;-76
2022/03/23 10:26:25;;;;;;;27.58;20.15;;;20.40;58.50;;;;;;5052226;28;20595;-76
2022/03/23 10:28:51;;;;;;;32.53;19.67;;;20.30;58.10;;;;;;5041779;28;20217;-75
2022/03/23 10:31:18;;;;;;;29.98;20.58;;;20.20;58.30;;;;;;5050072;28;20420;-75
2022/03/23 10:33:44;;;;;;;31.25;21.70;;;20.20;58.80;;;;;;5051142;28;20215;-75
2022/03/23 10:36:11;;;;;;;30.88;20.88;;;20.50;59.10;;;;;;5052508;28;20184;-75
2022/03/23 10:38:40;;;;;;;34.03;21.52;;;20.40;58.70;;;;;;5044134;28;20227;-74
2022/03/23 10:41:11;;;;;;;33.47;20.77;;;20.40;58.50;;;;;;5050407;28;20281;-74
2022/03/23 10:43:39;;;;;;;30.27;20.30;;;20.20;58.50;;;;;;5050936;28;20587;-75
2022/03/23 10:46:09;;;;;;;27.92;20.27;;;20.30;58.70;;;;;;5049497;28;20275;-74
2022/03/23 10:48:35;;;;;;;33.95;21.40;;;20.40;58.30;;;;;;5049585;28;20191;-74
2022/03/23 10:51:01;;;;;;;30.08;19.98;;;20.50;59.10;;;;;;5051744;28;20191;-75
2022/03/23 10:53:37;;;;;;;29.67;20.05;;;20.60;58.90;;;;;;5043308;28;20579;-77
2022/03/23 10:56:03;;;;;;;32.20;20.63;;;20.80;58.90;;;;;;5032212;28;20204;-74
2022/03/23 10:58:29;;;;;;;30.25;19.88;;;20.90;58.60;;;;;;5048191;28;20230;-75
2022/03/23 11:00:57;;;;;;;27.17;20.08;;;21.00;58.50;;;;;;5051316;28;20219;-74
2022/03/23 11:03:36;;;;;;;26.00;19.60;;;20.90;57.70;;;;;;5051648;28;20179;-73
2022/03/23 11:06:01;;;;;;;28.02;20.17;;;20.50;58.10;;;;;;5051733;28;20167;-72
2022/03/23 11:08:27;;;;;;;27.63;21.05;;;20.30;58.20;;;;;;5050416;28;20207;-74
2022/03/23 11:16:47;;;;;;;28.63;20.75;;;20.90;58.80;;;;;;5036072;28;20259;-74
2022/03/23 11:19:12;;;;;;;29.92;20.83;;;20.90;58.90;;;;;;5034558;28;20726;-73
2022/03/23 11:22:06;;;;;;;29.33;19.55;;;20.90;58.60;;;;;;5042541;28;20233;-75
2022/03/23 11:24:36;;;;;;;28.58;19.67;;;20.80;58.00;;;;;;5049902;28;20172;-75
2022/03/23 11:27:03;;;;;;;27.30;18.13;;;20.50;59.30;;;;;;5045130;28;20196;-76
2022/03/23 11:29:31;;;;;;;30.05;21.45;;;20.60;59.20;;;;;;5050799;28;20257;-75
2022/03/23 11:32:00;;;;;;;26.38;20.13;;;20.60;58.30;;;;;;5046992;28;20584;-76
2022/03/23 11:34:27;;;;;;;25.40;18.75;;;20.60;58.80;;;;;;5047808;28;20231;-75
2022/03/23 11:36:54;;;;;;;24.38;18.85;;;20.60;59.10;;;;;;5050730;28;20577;-77
2022/03/23 11:39:22;;;;;;;25.33;18.48;;;20.10;58.10;;;;;;5052452;28;20190;-75
2022/03/23 11:41:48;;;;;;;25.52;19.70;;;20.20;58.10;;;;;;5051570;28;20223;-76
2022/03/23 11:44:18;;;;;;;30.80;18.70;;;20.50;58.30;;;;;;5047294;28;20286;-76
2022/03/23 11:46:45;;;;;;;23.35;18.20;;;20.30;58.40;;;;;;5049972;28;20204;-76
2022/03/23 11:49:33;;;;;;;26.92;19.95;;;20.50;58.40;;;;;;5047359;28;20633;-76
2022/03/23 11:52:34;;;;;;;28.75;20.10;;;20.20;57.60;;;;;;5033936;28;20219;-76
2022/03/23 11:57:56;;;;;;;28.05;19.02;;;20.10;58.10;;;;;;5050141;28;20572;-76
2022/03/23 12:00:27;;;;;;;27.95;18.88;;;20.10;58.20;;;;;;5032026;28;20219;-78
2022/03/23 12:02:53;;;;;;;27.77;19.55;;;20.50;58.70;;;;;;5034368;28;20259;-77
2022/03/23 12:05:33;;;;;;;26.35;19.48;;;20.40;57.90;;;;;;5031945;28;20724;-79
2022/03/23 12:07:58;;;;;;;27.40;20.50;;;20.20;57.80;;;;;;5035779;28;20251;-78
2022/03/23 12:10:31;;;;;;;28.00;19.75;;;20.00;58.00;;;;;;5033746;28;20724;-76
2022/03/23 12:12:58;;;;;;;26.40;18.35;;;19.80;58.50;;;;;;5033844;28;20200;-77
2022/03/23 12:15:27;;;;;;;23.58;18.40;;;19.80;59.70;;;;;;5034279;28;20562;-78
2022/03/23 12:17:56;;;;;;;24.75;18.02;;;20.10;59.80;;;;;;5034408;28;20653;-77
2022/03/23 12:20:37;;;;;;;27.13;18.75;;;20.30;59.30;;;;;;5034073;28;20215;-77
2022/03/23 12:23:15;;;;;;;22.75;17.50;;;20.50;59.00;;;;;;5026015;28;20219;-79
2022/03/23 12:26:03;;;;;;;23.40;16.75;;;20.60;59.10;;;;;;5047663;28;20219;-77
2022/03/23 12:28:56;;;;;;;26.63;16.75;;;20.80;58.30;;;;;;5040614;28;20709;-79
2022/03/23 12:31:22;;;;;;;22.45;17.20;;;20.80;59.00;;;;;;5038465;28;20211;-77
2022/03/23 12:34:12;;;;;;;24.63;16.60;;;21.00;57.90;;;;;;5051421;28;20212;-78
2022/03/23 12:36:56;;;;;;;23.63;17.45;;;20.90;57.80;;;;;;5050002;28;20347;-78
2022/03/23 12:39:37;;;;;;;23.45;18.08;;;20.80;57.80;;;;;;5040796;28;20176;-76
2022/03/23 12:42:12;;;;;;;24.15;17.15;;;21.00;57.70;;;;;;5038140;28;20208;-76
2022/03/23 12:44:42;;;;;;;22.48;16.90;;;20.90;57.70;;;;;;5063915;28;20203;-77
2022/03/23 12:47:14;;;;;;;24.40;17.30;;;20.90;58.90;;;;;;5048754;28;20773;-76
2022/03/23 12:58:09;;;;;;;31.45;20.25;;;20.40;61.10;;;;;;5048646;28;20261;-76
2022/03/23 13:00:47;;;;;;;29.40;21.73;;;20.20;60.40;;;;;;5049523;28;20223;-77
2022/03/23 13:03:18;;;;;;;29.85;20.15;;;20.10;61.20;;;;;;5052441;28;20171;-76